createdAt,value
2017-11-30T00:00:58.538Z,980.40
2017-11-30T00:01:58.503Z,980.40
2017-11-30T00:02:58.438Z,980.43
2017-11-30T00:03:58.432Z,980.41
2017-11-30T00:04:58.428Z,980.39
2017-11-30T00:05:58.441Z,980.38
2017-11-30T00:06:58.337Z,980.37
2017-11-30T00:07:58.362Z,980.36
2017-11-30T00:08:58.289Z,980.37
2017-11-30T00:09:58.394Z,980.33
2017-11-30T00:10:58.307Z,980.32
2017-11-30T00:11:58.215Z,980.31
2017-11-30T00:12:58.200Z,980.31
2017-11-30T00:13:58.234Z,980.29
2017-11-30T00:14:58.203Z,980.32
2017-11-30T00:15:58.126Z,980.30
2017-11-30T00:16:58.105Z,980.26
2017-11-30T00:17:58.071Z,980.30
2017-11-30T00:18:58.047Z,980.32
2017-11-30T00:19:58.085Z,980.30
2017-11-30T00:20:58.081Z,980.29
2017-11-30T00:21:58.093Z,980.35
2017-11-30T00:22:57.948Z,980.28
2017-11-30T00:23:57.936Z,980.27
2017-11-30T00:24:57.957Z,980.28
2017-11-30T00:25:57.980Z,980.24
2017-11-30T00:26:57.900Z,980.27
2017-11-30T00:27:57.880Z,980.23
2017-11-30T00:28:57.815Z,980.27
2017-11-30T00:29:57.892Z,980.24
2017-11-30T00:30:57.911Z,980.24
2017-11-30T00:31:57.766Z,980.22
2017-11-30T00:32:57.758Z,980.22
2017-11-30T00:33:57.743Z,980.21
2017-11-30T00:34:57.674Z,980.22
2017-11-30T00:35:57.682Z,980.24
2017-11-30T00:36:57.642Z,980.22
2017-11-30T00:37:57.584Z,980.20
2017-11-30T00:38:57.568Z,980.18
2017-11-30T00:39:57.585Z,980.17
2017-11-30T00:40:57.524Z,980.19
2017-11-30T00:41:57.484Z,980.20
2017-11-30T00:42:57.490Z,980.18
2017-11-30T00:43:57.492Z,980.19
2017-11-30T00:44:57.447Z,980.18
2017-11-30T00:45:57.394Z,980.13
2017-11-30T00:46:57.392Z,980.13
2017-11-30T00:47:57.400Z,980.14
2017-11-30T00:48:57.377Z,980.12
2017-11-30T00:49:57.302Z,980.13
2017-11-30T00:50:57.350Z,980.10
2017-11-30T00:51:57.243Z,980.11
2017-11-30T00:52:57.286Z,980.12
2017-11-30T00:53:57.223Z,980.12
2017-11-30T00:54:57.171Z,980.11
2017-11-30T00:55:57.188Z,980.07
2017-11-30T00:56:57.190Z,980.06
2017-11-30T00:57:57.113Z,980.08
2017-11-30T00:58:57.084Z,980.08
2017-11-30T00:59:57.059Z,980.05
2017-11-30T01:00:57.081Z,980.04
2017-11-30T01:01:57.058Z,980.06
2017-11-30T01:02:57.048Z,980.01
2017-11-30T01:03:57.029Z,980.03
2017-11-30T01:04:56.936Z,980.05
2017-11-30T01:05:56.983Z,980.03
2017-11-30T01:06:56.916Z,980.03
2017-11-30T01:07:56.856Z,979.99
2017-11-30T01:08:56.851Z,979.96
2017-11-30T01:09:56.895Z,979.98
2017-11-30T01:10:56.840Z,979.97
2017-11-30T01:11:56.823Z,980.00
2017-11-30T01:12:56.782Z,980.02
2017-11-30T01:13:56.708Z,980.02
2017-11-30T01:14:56.792Z,980.02
2017-11-30T01:15:56.720Z,980.02
2017-11-30T01:16:56.679Z,980.05
2017-11-30T01:17:56.642Z,980.06
2017-11-30T01:18:56.595Z,980.00
2017-11-30T01:19:56.625Z,980.06
2017-11-30T01:20:56.616Z,980.01
2017-11-30T01:21:56.514Z,980.02
2017-11-30T01:22:56.566Z,980.06
2017-11-30T01:23:56.534Z,980.01
2017-11-30T01:24:56.492Z,980.02
2017-11-30T01:25:56.429Z,980.01
2017-11-30T01:26:56.460Z,980.00
2017-11-30T01:27:56.443Z,980.01
2017-11-30T01:28:56.375Z,979.99
2017-11-30T01:29:56.403Z,980.01
2017-11-30T01:30:56.424Z,980.04
2017-11-30T01:31:56.300Z,980.06
2017-11-30T01:32:56.310Z,979.98
2017-11-30T01:33:56.317Z,980.01
2017-11-30T01:34:56.225Z,980.02
2017-11-30T01:35:56.253Z,980.00
2017-11-30T01:36:56.168Z,980.02
2017-11-30T01:37:56.136Z,979.99
2017-11-30T01:38:56.113Z,979.97
2017-11-30T01:39:56.186Z,979.95
2017-11-30T01:40:56.174Z,979.95
2017-11-30T01:41:56.044Z,979.99
2017-11-30T01:42:56.064Z,979.95
2017-11-30T01:43:56.011Z,979.95
2017-11-30T01:44:55.987Z,979.97
2017-11-30T01:45:56.037Z,979.98
2017-11-30T01:46:55.955Z,979.95
2017-11-30T01:47:55.902Z,979.94
2017-11-30T01:48:55.860Z,979.96
2017-11-30T01:49:55.904Z,979.95
2017-11-30T01:50:55.892Z,979.91
2017-11-30T01:51:55.903Z,979.91
2017-11-30T01:52:55.827Z,979.88
2017-11-30T01:53:55.818Z,979.89
2017-11-30T01:54:55.724Z,979.91
2017-11-30T01:55:55.765Z,979.89
2017-11-30T01:56:55.690Z,979.86
2017-11-30T01:57:55.635Z,979.90
2017-11-30T01:58:55.700Z,979.86
2017-11-30T01:59:55.634Z,979.84
2017-11-30T02:00:55.602Z,979.83
2017-11-30T02:01:55.560Z,979.80
2017-11-30T02:02:55.570Z,979.78
2017-11-30T02:03:55.554Z,979.76
2017-11-30T02:04:57.318Z,979.74
2017-11-30T02:05:55.487Z,979.75
2017-11-30T02:06:55.427Z,979.72
2017-11-30T02:07:55.534Z,979.75
2017-11-30T02:08:55.405Z,979.72
2017-11-30T02:09:55.369Z,979.69
2017-11-30T02:10:55.430Z,979.74
2017-11-30T02:11:55.387Z,979.74
2017-11-30T02:12:55.385Z,979.70
2017-11-30T02:13:55.321Z,979.72
2017-11-30T02:14:55.270Z,979.70
2017-11-30T02:15:56.857Z,979.69
2017-11-30T02:16:55.311Z,979.70
2017-11-30T02:17:55.315Z,979.65
2017-11-30T02:18:55.227Z,979.68
2017-11-30T02:19:55.162Z,979.67
2017-11-30T02:20:55.150Z,979.69
2017-11-30T02:21:55.110Z,979.69
2017-11-30T02:22:55.111Z,979.67
2017-11-30T02:23:55.016Z,979.68
2017-11-30T02:24:54.992Z,979.63
2017-11-30T02:25:55.039Z,979.67
2017-11-30T02:26:54.968Z,979.66
2017-11-30T02:27:54.918Z,979.69
2017-11-30T02:28:54.985Z,979.64
2017-11-30T02:29:54.996Z,979.67
2017-11-30T02:30:54.973Z,979.67
2017-11-30T02:31:54.837Z,979.70
2017-11-30T02:32:54.810Z,979.65
2017-11-30T02:33:54.820Z,979.67
2017-11-30T02:34:54.757Z,979.72
2017-11-30T02:35:54.803Z,979.69
2017-11-30T02:36:54.701Z,979.67
2017-11-30T02:37:54.756Z,979.69
2017-11-30T02:38:54.699Z,979.61
2017-11-30T02:39:54.623Z,979.68
2017-11-30T02:40:54.610Z,979.63
2017-11-30T02:41:54.592Z,979.63
2017-11-30T02:42:54.616Z,979.63
2017-11-30T02:43:54.530Z,979.65
2017-11-30T02:44:54.508Z,979.62
2017-11-30T02:45:54.551Z,979.60
2017-11-30T02:46:54.466Z,979.61
2017-11-30T02:47:54.548Z,979.57
2017-11-30T02:48:54.442Z,979.58
2017-11-30T02:49:54.379Z,979.57
2017-11-30T02:50:54.480Z,979.59
2017-11-30T02:51:54.464Z,979.57
2017-11-30T02:52:54.399Z,979.55
2017-11-30T02:53:54.316Z,979.55
2017-11-30T02:54:54.312Z,979.52
2017-11-30T02:55:54.239Z,979.53
2017-11-30T02:56:54.207Z,979.51
2017-11-30T02:57:54.196Z,979.52
2017-11-30T02:58:54.202Z,979.49
2017-11-30T02:59:54.155Z,979.50
2017-11-30T03:00:54.244Z,979.52
2017-11-30T03:01:54.117Z,979.52
2017-11-30T03:02:54.124Z,979.52
2017-11-30T03:03:54.818Z,979.55
2017-11-30T03:04:54.117Z,979.54
2017-11-30T03:05:54.036Z,979.50
2017-11-30T03:06:53.982Z,979.50
2017-11-30T03:07:53.984Z,979.52
2017-11-30T03:08:53.927Z,979.49
2017-11-30T03:09:53.901Z,979.46
2017-11-30T03:10:53.859Z,979.49
2017-11-30T03:11:53.894Z,979.46
2017-11-30T03:12:53.978Z,979.45
2017-11-30T03:13:53.913Z,979.43
2017-11-30T03:14:53.847Z,979.38
2017-11-30T03:15:53.799Z,979.39
2017-11-30T03:16:54.106Z,979.40
2017-11-30T03:17:53.782Z,979.41
2017-11-30T03:18:53.746Z,979.37
2017-11-30T03:19:53.737Z,979.40
2017-11-30T03:20:53.633Z,979.37
2017-11-30T03:21:53.651Z,979.41
2017-11-30T03:22:53.652Z,979.39
2017-11-30T03:23:53.589Z,979.39
2017-11-30T03:24:53.536Z,979.38
2017-11-30T03:25:53.561Z,979.39
2017-11-30T03:26:53.469Z,979.41
2017-11-30T03:27:53.545Z,979.38
2017-11-30T03:28:53.492Z,979.39
2017-11-30T03:29:53.457Z,979.40
2017-11-30T03:30:53.430Z,979.32
2017-11-30T03:31:53.386Z,979.35
2017-11-30T03:32:53.398Z,979.35
2017-11-30T03:33:53.426Z,979.35
2017-11-30T03:34:53.342Z,979.36
2017-11-30T03:35:53.287Z,979.35
2017-11-30T03:36:53.223Z,979.34
2017-11-30T03:37:53.267Z,979.36
2017-11-30T03:38:53.192Z,979.39
2017-11-30T03:39:53.151Z,979.38
2017-11-30T03:40:53.186Z,979.41
2017-11-30T03:41:53.833Z,979.38
2017-11-30T03:42:53.117Z,979.44
2017-11-30T03:43:53.057Z,979.41
2017-11-30T03:44:53.072Z,979.37
2017-11-30T03:45:53.123Z,979.38
2017-11-30T03:46:53.001Z,979.39
2017-11-30T03:47:52.970Z,979.40
2017-11-30T03:48:52.941Z,979.38
2017-11-30T03:49:52.957Z,979.39
2017-11-30T03:50:53.013Z,979.36
2017-11-30T03:51:52.902Z,979.39
2017-11-30T03:52:52.899Z,979.37
2017-11-30T03:53:52.836Z,979.37
2017-11-30T03:54:52.845Z,979.37
2017-11-30T03:55:52.772Z,979.32
2017-11-30T03:56:52.799Z,979.32
2017-11-30T03:57:52.781Z,979.33
2017-11-30T03:58:52.691Z,979.35
2017-11-30T03:59:52.760Z,979.34
2017-11-30T04:00:52.689Z,979.32
2017-11-30T04:01:52.648Z,979.34
2017-11-30T04:02:52.664Z,979.36
2017-11-30T04:03:52.602Z,979.38
2017-11-30T04:04:52.545Z,979.41
2017-11-30T04:05:52.600Z,979.40
2017-11-30T04:06:52.504Z,979.40
2017-11-30T04:07:52.555Z,979.39
2017-11-30T04:08:52.480Z,979.42
2017-11-30T04:09:52.431Z,979.45
2017-11-30T04:10:52.482Z,979.40
2017-11-30T04:11:52.474Z,979.41
2017-11-30T04:12:52.343Z,979.42
2017-11-30T04:13:52.359Z,979.40
2017-11-30T04:14:52.339Z,979.39
2017-11-30T04:15:52.288Z,979.45
2017-11-30T04:16:52.257Z,979.40
2017-11-30T04:17:52.292Z,979.41
2017-11-30T04:18:52.210Z,979.40
2017-11-30T04:19:52.211Z,979.42
2017-11-30T04:20:52.172Z,979.40
2017-11-30T04:21:52.169Z,979.43
2017-11-30T04:22:52.216Z,979.42
2017-11-30T04:23:52.133Z,979.42
2017-11-30T04:24:52.102Z,979.38
2017-11-30T04:25:52.032Z,979.40
2017-11-30T04:26:52.020Z,979.37
2017-11-30T04:27:51.998Z,979.37
2017-11-30T04:28:51.952Z,979.37
2017-11-30T04:29:52.041Z,979.41
2017-11-30T04:30:51.970Z,979.42
2017-11-30T04:31:51.891Z,979.41
2017-11-30T04:32:51.991Z,979.42
2017-11-30T04:33:51.905Z,979.41
2017-11-30T04:34:51.812Z,979.40
2017-11-30T04:35:51.826Z,979.41
2017-11-30T04:36:51.912Z,979.42
2017-11-30T04:37:51.785Z,979.41
2017-11-30T04:38:51.714Z,979.42
2017-11-30T04:39:51.745Z,979.42
2017-11-30T04:40:51.723Z,979.43
2017-11-30T04:41:51.652Z,979.46
2017-11-30T04:42:51.686Z,979.44
2017-11-30T04:43:51.666Z,979.46
2017-11-30T04:44:51.567Z,979.45
2017-11-30T04:45:51.649Z,979.42
2017-11-30T04:46:51.581Z,979.44
2017-11-30T04:47:51.566Z,979.43
2017-11-30T04:48:51.580Z,979.41
2017-11-30T04:49:51.545Z,979.48
2017-11-30T04:50:51.411Z,979.43
2017-11-30T04:51:51.403Z,979.40
2017-11-30T04:52:51.462Z,979.40
2017-11-30T04:53:51.450Z,979.44
2017-11-30T04:54:51.375Z,979.48
2017-11-30T04:55:51.324Z,979.43
2017-11-30T04:56:52.023Z,979.44
2017-11-30T04:57:51.335Z,979.50
2017-11-30T04:58:51.238Z,979.43
2017-11-30T04:59:51.248Z,979.46
2017-11-30T05:00:51.319Z,979.46
2017-11-30T05:01:51.176Z,979.50
2017-11-30T05:02:51.149Z,979.47
2017-11-30T05:03:51.114Z,979.47
2017-11-30T05:04:51.114Z,979.47
2017-11-30T05:05:51.125Z,979.44
2017-11-30T05:06:51.096Z,979.46
2017-11-30T05:07:51.072Z,979.46
2017-11-30T05:08:50.986Z,979.43
2017-11-30T05:09:51.008Z,979.46
2017-11-30T05:10:50.957Z,979.45
2017-11-30T05:11:50.927Z,979.43
2017-11-30T05:12:50.957Z,979.44
2017-11-30T05:13:50.893Z,979.43
2017-11-30T05:14:50.841Z,979.40
2017-11-30T05:15:50.828Z,979.44
2017-11-30T05:16:50.844Z,979.41
2017-11-30T05:17:50.866Z,979.44
2017-11-30T05:18:50.800Z,979.41
2017-11-30T05:19:50.745Z,979.42
2017-11-30T05:20:50.717Z,979.41
2017-11-30T05:21:50.674Z,979.40
2017-11-30T05:22:50.749Z,979.40
2017-11-30T05:23:50.626Z,979.38
2017-11-30T05:24:50.609Z,979.37
2017-11-30T05:25:50.631Z,979.35
2017-11-30T05:26:50.640Z,979.34
2017-11-30T05:27:50.522Z,979.36
2017-11-30T05:28:50.552Z,979.35
2017-11-30T05:29:50.526Z,979.36
2017-11-30T05:30:50.498Z,979.40
2017-11-30T05:31:50.429Z,979.34
2017-11-30T05:32:50.511Z,979.34
2017-11-30T05:33:50.414Z,979.33
2017-11-30T05:34:50.370Z,979.31
2017-11-30T05:35:50.324Z,979.30
2017-11-30T05:36:50.315Z,979.31
2017-11-30T05:37:50.378Z,979.30
2017-11-30T05:38:50.259Z,979.26
2017-11-30T05:39:50.241Z,979.29
2017-11-30T05:40:50.238Z,979.32
2017-11-30T05:41:50.246Z,979.30
2017-11-30T05:42:50.240Z,979.26
2017-11-30T05:43:50.202Z,979.28
2017-11-30T05:44:50.198Z,979.27
2017-11-30T05:45:50.137Z,979.27
2017-11-30T05:46:50.072Z,979.28
2017-11-30T05:47:50.036Z,979.26
2017-11-30T05:48:50.019Z,979.28
2017-11-30T05:49:50.031Z,979.32
2017-11-30T05:50:49.965Z,979.28
2017-11-30T05:51:49.969Z,979.29
2017-11-30T05:52:49.932Z,979.26
2017-11-30T05:53:49.933Z,979.28
2017-11-30T05:54:49.880Z,979.31
2017-11-30T05:55:49.896Z,979.28
2017-11-30T05:56:49.820Z,979.29
2017-11-30T05:57:49.872Z,979.31
2017-11-30T05:58:49.809Z,979.32
2017-11-30T05:59:49.786Z,979.33
2017-11-30T06:00:49.770Z,979.33
2017-11-30T06:01:49.829Z,979.35
2017-11-30T06:02:49.743Z,979.31
2017-11-30T06:03:49.658Z,979.33
2017-11-30T06:04:50.438Z,979.35
2017-11-30T06:05:49.614Z,979.33
2017-11-30T06:06:49.651Z,979.30
2017-11-30T06:07:49.567Z,979.30
2017-11-30T06:08:49.539Z,979.32
2017-11-30T06:09:49.624Z,979.30
2017-11-30T06:10:49.525Z,979.26
2017-11-30T06:11:49.602Z,979.30
2017-11-30T06:12:49.502Z,979.30
2017-11-30T06:13:49.465Z,979.28
2017-11-30T06:14:49.611Z,979.25
2017-11-30T06:15:49.371Z,979.23
2017-11-30T06:16:49.388Z,979.26
2017-11-30T06:17:49.329Z,979.25
2017-11-30T06:18:49.300Z,979.24
2017-11-30T06:19:49.340Z,979.25
2017-11-30T06:20:49.238Z,979.29
2017-11-30T06:21:49.327Z,979.30
2017-11-30T06:22:49.212Z,979.28
2017-11-30T06:23:49.168Z,979.28
2017-11-30T06:24:49.196Z,979.27
2017-11-30T06:25:49.149Z,979.30
2017-11-30T06:26:49.145Z,979.28
2017-11-30T06:27:49.102Z,979.30
